Time;durP1;ratioP1;P1;durP2;ratioP2;P2;SDS_P1;SDS_P2;PMS_P1;PMS_P2;Temp;Humidity;BMP_temperature;BMP_pressure;BME280_temperature;BME280_humidity;BME280_pressure;Samples;Min_cycle;Max_cycle;Signal;HPM_P1;HPM_P2
2024/02/09 00:00:51;;;;;;;31.05;9.80;;;;;;;;;;5114058;28;20358;-63
2024/02/09 00:03:18;;;;;;;31.53;11.23;;;;;;;;;;5110676;28;20047;-62
2024/02/09 00:05:44;;;;;;;24.93;9.27;;;;;;;;;;5114600;28;20344;-62
2024/02/09 00:08:13;;;;;;;29.85;10.23;;;;;;;;;;5116965;28;20281;-61
2024/02/09 00:10:40;;;;;;;28.93;10.53;;;;;;;;;;5116639;28;20039;-62
2024/02/09 00:13:05;;;;;;;;;;;;;;;;;;5116837;28;20272;-61
2024/02/09 00:15:32;;;;;;;33.60;10.77;;;;;;;;;;5111097;28;19932;-63
2024/02/09 00:17:59;;;;;;;28.33;11.13;;;;;;;;;;5115333;28;20085;-63
2024/02/09 00:20:28;;;;;;;23.23;10.27;;;;;;;;;;5106140;28;20272;-63
2024/02/09 00:22:54;;;;;;;33.95;10.93;;;;;;;;;;5106015;28;20287;-62
2024/02/09 00:25:19;;;;;;;32.42;11.43;;;;;;;;;;5109342;28;20037;-63
2024/02/09 00:27:45;;;;;;;29.47;10.93;;;;;;;;;;5106042;28;20040;-63
2024/02/09 00:30:10;;;;;;;33.27;11.97;;;;;;;;;;5110824;28;20035;-62
2024/02/09 00:32:36;;;;;;;30.60;11.67;;;;;;;;;;5111038;28;20070;-63
2024/02/09 00:35:03;;;;;;;40.08;10.98;;;;;;;;;;5115343;28;20261;-62
2024/02/09 00:37:28;;;;;;;29.88;10.75;;;;;;;;;;5113792;28;20063;-63
2024/02/09 00:39:53;;;;;;;38.20;11.60;;;;;;;;;;5112293;28;20028;-63
2024/02/09 00:42:20;;;;;;;28.23;10.73;;;;;;;;;;5103473;28;20042;-63
2024/02/09 00:44:46;;;;;;;38.17;10.47;;;;;;;;;;5115652;28;20024;-63
2024/02/09 00:47:11;;;;;;;35.77;11.10;;;;;;;;;;5125402;28;20320;-62
2024/02/09 00:49:37;;;;;;;29.67;12.60;;;;;;;;;;5106055;28;20060;-62
2024/02/09 00:52:03;;;;;;;37.07;12.07;;;;;;;;;;5111756;28;20087;-62
2024/02/09 00:54:30;;;;;;;37.77;10.63;;;;;;;;;;5115483;28;20268;-63
2024/02/09 00:56:55;;;;;;;33.33;9.70;;;;;;;;;;5112817;28;20336;-63
2024/02/09 00:59:21;;;;;;;27.77;11.15;;;;;;;;;;5112751;28;20050;-63
2024/02/09 01:01:47;;;;;;;33.72;9.23;;;;;;;;;;5115224;28;20032;-63
2024/02/09 01:04:13;;;;;;;;;;;;;;;;;;5104254;28;20066;-62
2024/02/09 01:06:39;;;;;;;26.30;10.20;;;;;;;;;;5120909;28;19907;-62
2024/02/09 01:09:06;;;;;;;25.98;9.25;;;;;;;;;;5121434;28;20039;-63
2024/02/09 01:11:32;;;;;;;28.37;9.20;;;;;;;;;;5119471;28;20085;-63
2024/02/09 02:46:40;;;;;;;31.83;11.17;;;;;;;;;;5116604;28;20020;-63
2024/02/09 03:05:30;;;;;;;29.07;8.17;;;;;;;;;;5110080;28;20268;-63
2024/02/09 03:07:58;;;;;;;24.27;8.43;;;;;;;;;;5115747;28;20264;-62
2024/02/09 03:10:24;;;;;;;37.23;8.93;;;;;;;;;;5117699;28;20040;-63
2024/02/09 03:12:49;;;;;;;27.47;8.93;;;;;;;;;;5117415;28;20527;-62
2024/02/09 03:15:18;;;;;;;21.70;7.90;;;;;;;;;;5117363;28;20272;-61
2024/02/09 03:17:44;;;;;;;25.33;8.50;;;;;;;;;;5118367;28;20083;-63
2024/02/09 03:20:10;;;;;;;29.00;9.07;;;;;;;;;;5117130;28;20267;-62
2024/02/09 03:22:36;;;;;;;36.42;7.95;;;;;;;;;;5131233;28;20328;-63
2024/02/09 03:25:02;;;;;;;20.77;8.38;;;;;;;;;;5109096;28;20028;-62
2024/02/09 03:27:29;;;;;;;26.03;9.30;;;;;;;;;;5126517;28;20027;-62
2024/02/09 03:29:55;;;;;;;27.45;9.02;;;;;;;;;;5125091;28;20260;-62
2024/02/09 03:32:21;;;;;;;24.77;7.53;;;;;;;;;;5125975;28;20032;-62
2024/02/09 03:34:49;;;;;;;25.47;8.17;;;;;;;;;;5117261;28;20062;-61
2024/02/09 03:37:14;;;;;;;21.13;8.33;;;;;;;;;;5119957;28;20257;-63
2024/02/09 03:39:40;;;;;;;22.07;7.90;;;;;;;;;;5110512;28;20265;-63
2024/02/09 03:42:05;;;;;;;23.90;8.30;;;;;;;;;;5109639;28;20269;-62
2024/02/09 03:44:31;;;;;;;28.52;10.13;;;;;;;;;;5105562;28;20162;-62
2024/02/09 03:46:58;;;;;;;35.88;9.90;;;;;;;;;;5110992;28;20074;-62
2024/02/09 03:49:23;;;;;;;25.50;8.83;;;;;;;;;;5098937;28;20062;-62
2024/02/09 03:51:49;;;;;;;28.15;7.75;;;;;;;;;;5107768;28;20950;-61
2024/02/09 03:54:14;;;;;;;20.97;7.43;;;;;;;;;;5123222;28;20036;-62
2024/02/09 03:56:40;;;;;;;22.88;7.72;;;;;;;;;;5111244;28;20498;-62
2024/02/09 03:59:06;;;;;;;22.03;6.77;;;;;;;;;;5123189;28;20036;-62
2024/02/09 04:01:32;;;;;;;20.17;7.72;;;;;;;;;;5112810;28;20037;-61
2024/02/09 04:03:57;;;;;;;19.75;8.13;;;;;;;;;;5101633;28;20044;-62
2024/02/09 04:06:24;;;;;;;19.97;7.83;;;;;;;;;;5117887;28;20032;-62
2024/02/09 04:08:49;;;;;;;21.90;7.47;;;;;;;;;;5108421;28;20114;-62
2024/02/09 04:11:24;;;;;;;19.63;6.97;;;;;;;;;;5108967;28;20288;-62
2024/02/09 04:13:50;;;;;;;22.33;8.17;;;;;;;;;;5120540;28;20028;-62
2024/02/09 04:16:18;;;;;;;26.73;7.63;;;;;;;;;;5116480;28;20253;-61
2024/02/09 04:18:45;;;;;;;17.30;7.63;;;;;;;;;;5120554;28;20260;-62
2024/02/09 04:21:10;;;;;;;19.92;7.65;;;;;;;;;;5116619;28;20267;-62
2024/02/09 04:23:39;;;;;;;21.67;7.78;;;;;;;;;;5106734;28;20036;-62
2024/02/09 04:26:04;;;;;;;20.77;7.97;;;;;;;;;;5101144;28;20036;-62
2024/02/09 04:28:30;;;;;;;21.75;7.38;;;;;;;;;;5120976;28;20268;-62
2024/02/09 04:30:55;;;;;;;17.93;7.17;;;;;;;;;;5116273;28;20044;-63
2024/02/09 04:33:21;;;;;;;28.23;7.33;;;;;;;;;;5112859;28;20284;-62
2024/02/09 04:35:46;;;;;;;16.45;7.18;;;;;;;;;;5117625;28;20028;-62
2024/02/09 04:38:12;;;;;;;23.88;7.38;;;;;;;;;;5117742;28;20024;-62
2024/02/09 04:40:38;;;;;;;24.75;6.80;;;;;;;;;;5115878;28;20031;-62
2024/02/09 04:43:05;;;;;;;17.45;5.97;;;;;;;;;;5115699;28;20027;-62
2024/02/09 04:45:30;;;;;;;16.65;6.45;;;;;;;;;;5111571;28;20032;-62
2024/02/09 04:47:55;;;;;;;16.70;6.13;;;;;;;;;;5111051;28;20040;-62
2024/02/09 04:50:22;;;;;;;17.23;6.00;;;;;;;;;;5106865;28;20109;-62
2024/02/09 04:52:48;;;;;;;19.17;5.80;;;;;;;;;;5115716;28;20110;-62
2024/02/09 04:55:15;;;;;;;16.90;6.18;;;;;;;;;;5111013;28;20039;-62
2024/02/09 04:57:44;;;;;;;22.97;9.03;;;;;;;;;;5114243;28;20039;-63
2024/02/09 05:00:10;;;;;;;15.97;7.17;;;;;;;;;;5099609;28;20261;-63
2024/02/09 05:02:36;;;;;;;15.10;6.07;;;;;;;;;;5112274;28;20260;-62
2024/02/09 05:05:01;;;;;;;15.85;6.70;;;;;;;;;;5107933;28;20465;-62
2024/02/09 05:07:27;;;;;;;18.80;6.85;;;;;;;;;;5115903;28;20095;-61
2024/02/09 05:09:53;;;;;;;17.57;7.03;;;;;;;;;;5107081;28;20039;-61
2024/02/09 05:12:18;;;;;;;13.57;6.63;;;;;;;;;;5118271;28;20284;-62
2024/02/09 05:14:44;;;;;;;14.97;6.77;;;;;;;;;;5118020;28;20092;-62
2024/02/09 05:17:10;;;;;;;16.13;6.18;;;;;;;;;;5115758;28;20030;-62
2024/02/09 05:19:36;;;;;;;13.00;5.60;;;;;;;;;;5105677;28;20092;-62
2024/02/09 05:22:04;;;;;;;15.25;5.90;;;;;;;;;;5106467;28;20028;-62
2024/02/09 05:24:30;;;;;;;13.10;5.60;;;;;;;;;;5114912;28;20028;-62
2024/02/09 05:26:55;;;;;;;16.88;6.57;;;;;;;;;;5117506;28;20264;-62
2024/02/09 05:29:21;;;;;;;14.88;5.82;;;;;;;;;;5115376;28;20040;-62
2024/02/09 05:31:49;;;;;;;17.67;7.75;;;;;;;;;;5114892;28;20036;-61
2024/02/09 05:34:14;;;;;;;17.03;6.07;;;;;;;;;;5114956;28;20032;-62
2024/02/09 05:36:40;;;;;;;15.87;5.60;;;;;;;;;;5110857;28;20275;-62
2024/02/09 05:39:06;;;;;;;12.90;6.50;;;;;;;;;;5115032;28;20043;-62
2024/02/09 05:41:33;;;;;;;13.07;5.60;;;;;;;;;;5114543;28;20027;-63
2024/02/09 05:43:58;;;;;;;13.25;5.40;;;;;;;;;;5116012;28;20264;-63
2024/02/09 05:46:26;;;;;;;14.97;5.30;;;;;;;;;;5114529;28;20057;-62
2024/02/09 05:48:52;;;;;;;15.00;6.10;;;;;;;;;;5102020;28;20281;-62
2024/02/09 05:51:18;;;;;;;12.30;5.07;;;;;;;;;;5097621;28;20277;-62
2024/02/09 05:53:48;;;;;;;16.85;6.43;;;;;;;;;;5104687;28;20025;-63
2024/02/09 05:56:15;;;;;;;15.27;6.10;;;;;;;;;;5110351;28;20036;-62
2024/02/09 05:58:40;;;;;;;12.87;5.23;;;;;;;;;;5113650;28;20261;-63
2024/02/09 06:01:07;;;;;;;16.50;5.83;;;;;;;;;;5100578;28;20275;-64
2024/02/09 06:03:33;;;;;;;;;;;;;;;;;;5115360;28;20024;-63
2024/02/09 06:05:58;;;;;;;17.57;6.30;;;;;;;;;;5116322;28;19916;-62
2024/02/09 06:08:24;;;;;;;17.63;5.35;;;;;;;;;;5121389;28;20351;-61
2024/02/09 06:10:49;;;;;;;15.87;5.43;;;;;;;;;;5101466;28;20184;-62
2024/02/09 06:13:16;;;;;;;17.57;5.43;;;;;;;;;;5117637;28;20327;-62
2024/02/09 06:15:42;;;;;;;25.63;5.97;;;;;;;;;;5104103;28;20255;-62
2024/02/09 06:18:07;;;;;;;19.17;5.60;;;;;;;;;;5115828;28;20261;-62
2024/02/09 06:20:33;;;;;;;13.70;5.10;;;;;;;;;;5114209;28;20256;-61
2024/02/09 06:22:59;;;;;;;14.93;6.30;;;;;;;;;;5117990;28;20308;-62
2024/02/09 06:25:26;;;;;;;17.50;6.07;;;;;;;;;;5108564;28;20119;-62
2024/02/09 06:27:55;;;;;;;17.37;6.03;;;;;;;;;;5102799;28;20008;-62
2024/02/09 06:30:20;;;;;;;17.70;5.90;;;;;;;;;;5112635;28;20276;-62
2024/02/09 06:32:46;;;;;;;20.48;5.53;;;;;;;;;;5114148;28;20280;-62
2024/02/09 06:35:11;;;;;;;17.03;6.47;;;;;;;;;;5112299;28;20028;-61
2024/02/09 06:37:37;;;;;;;12.35;5.60;;;;;;;;;;5127037;28;20028;-61
2024/02/09 06:40:03;;;;;;;21.63;5.53;;;;;;;;;;5117756;28;20020;-62
2024/02/09 06:42:29;;;;;;;15.98;5.20;;;;;;;;;;5111105;28;20257;-62
2024/02/09 06:44:55;;;;;;;16.33;5.57;;;;;;;;;;5118346;28;20032;-62
2024/02/09 06:47:21;;;;;;;16.38;5.40;;;;;;;;;;5120034;28;20259;-62
2024/02/09 06:49:47;;;;;;;10.97;5.40;;;;;;;;;;5120306;28;20043;-62
2024/02/09 06:52:12;;;;;;;14.55;5.43;;;;;;;;;;5118075;28;20042;-62
2024/02/09 06:54:38;;;;;;;16.90;5.50;;;;;;;;;;5118172;28;20032;-62
2024/02/09 06:57:04;;;;;;;;;;;;;;;;;;5119186;28;20043;-61
2024/02/09 06:59:30;;;;;;;17.53;6.13;;;;;;;;;;5125237;28;19940;-61
2024/02/09 07:01:55;;;;;;;14.52;5.72;;;;;;;;;;5100318;28;20048;-61
2024/02/09 07:04:23;;;;;;;18.57;6.00;;;;;;;;;;5118967;28;20031;-61
2024/02/09 07:06:51;;;;;;;20.77;6.50;;;;;;;;;;5099933;28;20330;-60
2024/02/09 07:09:18;;;;;;;19.80;5.67;;;;;;;;;;5113868;28;20332;-60
2024/02/09 07:11:47;;;;;;;13.93;6.03;;;;;;;;;;5112869;28;20292;-63
2024/02/09 07:14:13;;;;;;;13.53;5.03;;;;;;;;;;5114788;28;20336;-62
2024/02/09 07:16:40;;;;;;;17.83;5.95;;;;;;;;;;5117695;28;20276;-61
2024/02/09 07:19:05;;;;;;;14.38;5.78;;;;;;;;;;5117179;28;20019;-62
2024/02/09 07:21:31;;;;;;;21.23;5.60;;;;;;;;;;5114581;28;20036;-61
2024/02/09 07:23:57;;;;;;;17.67;6.23;;;;;;;;;;5117325;28;20032;-61
2024/02/09 07:26:25;;;;;;;13.13;4.93;;;;;;;;;;5123582;28;20278;-61
2024/02/09 07:28:50;;;;;;;;;;;;;;;;;;5109253;28;20280;-62
2024/02/09 07:31:15;;;;;;;15.05;6.13;;;;;;;;;;5116581;28;19922;-63
2024/02/09 07:33:40;;;;;;;19.07;7.40;;;;;;;;;;5106162;28;20039;-61
2024/02/09 07:36:10;;;;;;;14.52;5.72;;;;;;;;;;5112110;28;20029;-62
2024/02/09 07:38:35;;;;;;;15.60;4.80;;;;;;;;;;5118636;28;20049;-61
2024/02/09 07:41:00;;;;;;;18.77;6.30;;;;;;;;;;5115941;28;20272;-62
2024/02/09 07:43:27;;;;;;;28.97;5.70;;;;;;;;;;5109131;28;20032;-62
2024/02/09 07:45:53;;;;;;;16.57;4.80;;;;;;;;;;5116876;28;20036;-62
2024/02/09 07:48:19;;;;;;;15.25;5.45;;;;;;;;;;5119540;28;20267;-61
2024/02/09 07:50:44;;;;;;;13.93;5.67;;;;;;;;;;5102821;28;20044;-62
2024/02/09 07:53:14;;;;;;;14.03;5.13;;;;;;;;;;5103351;28;20054;-61
2024/02/09 07:55:40;;;;;;;18.50;5.97;;;;;;;;;;5112752;28;20024;-61
2024/02/09 07:58:06;;;;;;;;;;;;;;;;;;5116881;28;20277;-62
2024/02/09 08:00:32;;;;;;;11.67;4.60;;;;;;;;;;5116900;28;19915;-61
2024/02/09 08:02:58;;;;;;;18.80;5.50;;;;;;;;;;5115466;28;20056;-61
2024/02/09 08:05:24;;;;;;;19.17;5.90;;;;;;;;;;5114458;28;20265;-61
2024/02/09 08:07:50;;;;;;;20.60;6.20;;;;;;;;;;5104563;28;20028;-62
2024/02/09 08:10:16;;;;;;;20.20;5.43;;;;;;;;;;5116677;28;20298;-61
2024/02/09 08:12:42;;;;;;;21.02;5.97;;;;;;;;;;5113929;28;20031;-62
2024/02/09 08:15:11;;;;;;;37.95;6.22;;;;;;;;;;5110650;28;20037;-61
2024/02/09 08:17:38;;;;;;;27.00;5.73;;;;;;;;;;5112162;28;20120;-62
2024/02/09 08:20:04;;;;;;;21.20;5.80;;;;;;;;;;5123177;28;20280;-62
2024/02/09 08:22:32;;;;;;;;;;;;;;;;;;5114051;28;20340;-63
2024/02/09 08:24:58;;;;;;;17.70;5.40;;;;;;;;;;5099764;28;19967;-63
2024/02/09 08:27:24;;;;;;;14.37;5.87;;;;;;;;;;5116677;28;20028;-62
2024/02/09 08:29:55;;;;;;;10.23;5.60;;;;;;;;;;5131236;28;20283;-62
2024/02/09 08:32:20;;;;;;;14.90;5.37;;;;;;;;;;5116153;28;20308;-62
2024/02/09 08:34:46;;;;;;;14.25;4.97;;;;;;;;;;5108639;28;20261;-61
2024/02/09 08:37:11;;;;;;;14.52;6.03;;;;;;;;;;5103926;28;20039;-61
2024/02/09 08:39:40;;;;;;;24.77;6.00;;;;;;;;;;5115104;28;20036;-61
2024/02/09 08:42:06;;;;;;;19.23;5.73;;;;;;;;;;5108850;28;20043;-62
2024/02/09 08:44:32;;;;;;;13.80;5.27;;;;;;;;;;5115931;28;20279;-61
2024/02/09 08:46:57;;;;;;;13.70;4.67;;;;;;;;;;5109604;28;20285;-62
2024/02/09 08:49:23;;;;;;;20.52;6.78;;;;;;;;;;5116344;28;20024;-62
2024/02/09 08:51:51;;;;;;;16.00;5.60;;;;;;;;;;5102148;28;20044;-63
2024/02/09 08:54:17;;;;;;;13.70;5.33;;;;;;;;;;5113304;28;20264;-61
2024/02/09 08:56:42;;;;;;;14.03;6.17;;;;;;;;;;5115292;28;20261;-62
2024/02/09 08:59:08;;;;;;;16.92;5.88;;;;;;;;;;5109753;28;20028;-64
2024/02/09 09:01:34;;;;;;;17.30;5.43;;;;;;;;;;5120881;28;20108;-61
2024/02/09 09:04:00;;;;;;;22.58;7.70;;;;;;;;;;5103403;28;20039;-61
2024/02/09 09:06:25;;;;;;;10.77;5.53;;;;;;;;;;5116106;28;20032;-62
2024/02/09 09:08:51;;;;;;;24.17;6.05;;;;;;;;;;5107556;28;20027;-62
2024/02/09 09:11:17;;;;;;;15.35;5.90;;;;;;;;;;5115086;28;20032;-62
2024/02/09 09:13:43;;;;;;;20.57;6.07;;;;;;;;;;5115227;28;20020;-61
2024/02/09 09:16:08;;;;;;;14.73;5.83;;;;;;;;;;5115455;28;20269;-62
2024/02/09 09:18:34;;;;;;;13.02;5.07;;;;;;;;;;5102655;28;20016;-61
2024/02/09 09:20:59;;;;;;;11.40;5.60;;;;;;;;;;5115149;28;20095;-62
2024/02/09 09:23:25;;;;;;;16.15;5.78;;;;;;;;;;5113610;28;20474;-60
2024/02/09 09:25:51;;;;;;;12.13;5.20;;;;;;;;;;5101848;28;20096;-62
2024/02/09 09:28:19;;;;;;;27.37;5.70;;;;;;;;;;5112482;28;20032;-62
2024/02/09 09:30:45;;;;;;;14.73;4.73;;;;;;;;;;5127041;28;20288;-62
2024/02/09 09:33:11;;;;;;;19.40;5.97;;;;;;;;;;5120618;28;20276;-62
2024/02/09 09:35:36;;;;;;;25.83;7.47;;;;;;;;;;5111265;28;20256;-61
2024/02/09 09:38:01;;;;;;;20.27;5.53;;;;;;;;;;5115209;28;20024;-61
2024/02/09 09:40:31;;;;;;;21.38;5.43;;;;;;;;;;5116297;28;20028;-61
2024/02/09 09:42:56;;;;;;;12.43;5.63;;;;;;;;;;5100024;28;20060;-61
2024/02/09 09:45:23;;;;;;;22.30;5.77;;;;;;;;;;5116578;28;20283;-61
2024/02/09 09:47:48;;;;;;;12.25;5.38;;;;;;;;;;5119224;28;20039;-61
2024/02/09 09:50:14;;;;;;;12.67;5.93;;;;;;;;;;5134710;27;20032;-61
2024/02/09 09:52:50;;;;;;;14.77;5.90;;;;;;;;;;5113068;28;20036;-61
2024/02/09 09:55:19;;;;;;;12.80;5.32;;;;;;;;;;5114456;28;20264;-63
2024/02/09 09:57:45;;;;;;;20.43;5.13;;;;;;;;;;5117835;28;20028;-62
2024/02/09 10:00:12;;;;;;;15.82;4.80;;;;;;;;;;5106831;28;20273;-61
2024/02/09 10:02:38;;;;;;;15.37;4.77;;;;;;;;;;5101925;28;20029;-61
2024/02/09 10:05:04;;;;;;;17.42;5.35;;;;;;;;;;5107383;28;20355;-61
2024/02/09 10:07:30;;;;;;;13.53;4.97;;;;;;;;;;5100228;28;20042;-61
2024/02/09 10:09:56;;;;;;;12.67;5.33;;;;;;;;;;5115103;28;20284;-61
2024/02/09 10:12:22;;;;;;;18.10;5.20;;;;;;;;;;5101659;28;20029;-61
2024/02/09 10:14:48;;;;;;;15.38;4.80;;;;;;;;;;5106921;28;20087;-60
2024/02/09 10:17:13;;;;;;;20.85;5.30;;;;;;;;;;5118711;28;20028;-60
2024/02/09 10:19:38;;;;;;;21.67;6.33;;;;;;;;;;5118321;28;20028;-60
2024/02/09 10:22:04;;;;;;;23.87;8.03;;;;;;;;;;5113574;28;20032;-60
2024/02/09 10:24:29;;;;;;;22.88;6.72;;;;;;;;;;5113282;28;20032;-61
2024/02/09 10:26:55;;;;;;;12.70;5.82;;;;;;;;;;5113640;28;20116;-60
2024/02/09 10:29:24;;;;;;;20.52;6.40;;;;;;;;;;5115731;28;20031;-61
2024/02/09 10:31:54;;;;;;;15.50;6.77;;;;;;;;;;5113767;28;20044;-61
2024/02/09 10:34:20;;;;;;;15.53;6.87;;;;;;;;;;5114069;28;20267;-61
2024/02/09 10:36:45;;;;;;;14.70;7.07;;;;;;;;;;5113897;28;20260;-60
2024/02/09 10:39:10;;;;;;;11.83;5.33;;;;;;;;;;5112799;28;20024;-61
2024/02/09 10:41:37;;;;;;;16.25;5.03;;;;;;;;;;5102569;28;20039;-61
2024/02/09 10:44:04;;;;;;;17.58;5.82;;;;;;;;;;5111287;28;20134;-60
2024/02/09 10:46:30;;;;;;;15.00;4.77;;;;;;;;;;5104361;28;20030;-61
2024/02/09 10:48:57;;;;;;;16.47;5.20;;;;;;;;;;5110271;28;20288;-61
2024/02/09 10:51:27;;;;;;;14.40;6.27;;;;;;;;;;5113641;28;20296;-60
2024/02/09 10:54:01;;;;;;;17.70;7.73;;;;;;;;;;5112390;28;20316;-61
2024/02/09 10:56:27;;;;;;;16.47;6.10;;;;;;;;;;5113839;28;20261;-61
2024/02/09 10:58:54;;;;;;;11.73;5.72;;;;;;;;;;5105210;28;20283;-60
2024/02/09 11:01:19;;;;;;;;;;;;;;;;;;5111938;28;20028;-60
2024/02/09 11:03:44;;;;;;;14.60;5.47;;;;;;;;;;5109942;28;19918;-60
2024/02/09 11:06:11;;;;;;;13.23;5.30;;;;;;;;;;5109890;28;20087;-60
2024/02/09 11:08:36;;;;;;;15.55;5.55;;;;;;;;;;5118796;28;20039;-60
2024/02/09 11:11:03;;;;;;;14.45;5.95;;;;;;;;;;5111541;28;20058;-62
2024/02/09 11:13:30;;;;;;;13.13;5.57;;;;;;;;;;5107344;28;20028;-61
2024/02/09 11:15:56;;;;;;;;;;;;;;;;;;5110980;28;20292;-60
2024/02/09 11:18:21;;;;;;;15.97;4.60;;;;;;;;;;5113494;28;19967;-60
2024/02/09 11:20:46;;;;;;;15.27;4.93;;;;;;;;;;5105865;28;20028;-61
2024/02/09 11:23:12;;;;;;;16.42;5.43;;;;;;;;;;5102111;28;20069;-61
2024/02/09 11:25:37;;;;;;;12.27;4.20;;;;;;;;;;5111378;28;20055;-61
2024/02/09 11:28:06;;;;;;;13.18;4.80;;;;;;;;;;5117121;28;20032;-61
2024/02/09 11:30:32;;;;;;;12.80;5.97;;;;;;;;;;5110819;28;20038;-60
2024/02/09 11:32:58;;;;;;;18.03;5.10;;;;;;;;;;5110185;28;20292;-59
2024/02/09 11:35:24;;;;;;;20.13;5.88;;;;;;;;;;5100185;28;20269;-59
2024/02/09 11:37:50;;;;;;;13.57;5.30;;;;;;;;;;5108965;28;20024;-60
2024/02/09 11:40:16;;;;;;;22.40;6.27;;;;;;;;;;5127969;28;20287;-61
2024/02/09 11:42:42;;;;;;;;;;;;;;;;;;5110122;28;20039;-60
2024/02/09 11:45:09;;;;;;;16.57;5.40;;;;;;;;;;5104993;28;19911;-60
2024/02/09 11:47:35;;;;;;;13.73;5.47;;;;;;;;;;5106660;28;20025;-63
2024/02/09 11:50:01;;;;;;;14.15;4.80;;;;;;;;;;5105053;28;20039;-61
2024/02/09 11:52:26;;;;;;;8.90;3.63;;;;;;;;;;5118567;28;20040;-60
2024/02/09 11:54:51;;;;;;;17.00;3.60;;;;;;;;;;5109686;28;20032;-60
2024/02/09 11:57:18;;;;;;;12.55;4.30;;;;;;;;;;5110006;28;20060;-60
2024/02/09 11:59:43;;;;;;;15.15;3.70;;;;;;;;;;5115240;28;20039;-60
2024/02/09 12:02:08;;;;;;;9.23;4.10;;;;;;;;;;5114521;28;20032;-61
2024/02/09 12:04:34;;;;;;;11.87;3.27;;;;;;;;;;5113637;28;20046;-61
2024/02/09 12:06:59;;;;;;;13.88;3.40;;;;;;;;;;5116613;28;20039;-60
2024/02/09 12:09:29;;;;;;;8.52;2.85;;;;;;;;;;5104901;28;20051;-59
2024/02/09 12:11:55;;;;;;;6.30;2.53;;;;;;;;;;5105762;28;20088;-59
2024/02/09 12:14:20;;;;;;;12.30;2.70;;;;;;;;;;5120870;28;20036;-61
2024/02/09 12:16:46;;;;;;;9.18;2.20;;;;;;;;;;5103691;28;20067;-61
2024/02/09 12:19:12;;;;;;;8.83;2.43;;;;;;;;;;5107652;28;20033;-61
2024/02/09 12:21:38;;;;;;;6.03;2.57;;;;;;;;;;5115128;28;20036;-60
2024/02/09 12:24:04;;;;;;;8.90;2.40;;;;;;;;;;5109782;28;20040;-58
2024/02/09 12:26:30;;;;;;;9.00;2.70;;;;;;;;;;5109083;28;20036;-60
2024/02/09 12:28:55;;;;;;;9.57;2.38;;;;;;;;;;5123113;28;20016;-59
2024/02/09 12:31:21;;;;;;;10.93;2.65;;;;;;;;;;5103831;28;20040;-61
2024/02/09 12:33:47;;;;;;;15.13;2.42;;;;;;;;;;5107767;28;20024;-61
2024/02/09 12:36:20;;;;;;;9.07;3.00;;;;;;;;;;5103096;28;20028;-61
2024/02/09 12:38:55;;;;;;;12.80;3.00;;;;;;;;;;5123261;28;20053;-59
2024/02/09 12:41:21;;;;;;;12.23;2.57;;;;;;;;;;5107369;28;20036;-60
2024/02/09 12:43:53;;;;;;;7.80;2.72;;;;;;;;;;5115405;28;20042;-60
2024/02/09 12:46:19;;;;;;;9.30;2.90;;;;;;;;;;5108027;28;20032;-60
2024/02/09 12:48:45;;;;;;;10.93;2.67;;;;;;;;;;5111543;28;20057;-60
2024/02/09 12:51:12;;;;;;;11.17;2.37;;;;;;;;;;5116071;28;20044;-59
2024/02/09 12:53:37;;;;;;;7.03;2.60;;;;;;;;;;5110085;28;20053;-60
2024/02/09 12:56:03;;;;;;;11.00;2.30;;;;;;;;;;5113498;28;20056;-60
2024/02/09 12:58:29;;;;;;;13.18;2.90;;;;;;;;;;5111680;28;20259;-59
2024/02/09 13:00:55;;;;;;;10.02;2.58;;;;;;;;;;5111953;28;20028;-61
2024/02/09 13:03:21;;;;;;;13.00;2.30;;;;;;;;;;5106240;28;20041;-59
2024/02/09 13:05:47;;;;;;;7.43;2.00;;;;;;;;;;5105918;28;20024;-60
2024/02/09 13:08:13;;;;;;;9.43;2.88;;;;;;;;;;5112510;28;20066;-59
2024/02/09 13:10:38;;;;;;;8.80;2.13;;;;;;;;;;5117487;28;20072;-60
2024/02/09 13:13:07;;;;;;;13.03;3.17;;;;;;;;;;5115092;28;20047;-60
2024/02/09 13:15:37;;;;;;;14.80;2.90;;;;;;;;;;5108361;28;20069;-59
2024/02/09 13:18:06;;;;;;;8.13;2.77;;;;;;;;;;5105108;28;20020;-60
2024/02/09 13:20:32;;;;;;;9.10;2.23;;;;;;;;;;5107591;28;20028;-59
2024/02/09 13:22:59;;;;;;;10.27;2.50;;;;;;;;;;5110542;28;20036;-59
2024/02/09 13:25:30;;;;;;;9.40;2.87;;;;;;;;;;5099457;28;20033;-59
2024/02/09 13:27:57;;;;;;;5.87;2.53;;;;;;;;;;5104855;28;20032;-58
2024/02/09 13:30:23;;;;;;;7.10;2.40;;;;;;;;;;5100646;28;20042;-59
2024/02/09 13:32:48;;;;;;;8.60;2.90;;;;;;;;;;5098693;28;20029;-59
2024/02/09 13:35:18;;;;;;;12.50;2.60;;;;;;;;;;5103311;28;20024;-57
2024/02/09 13:37:44;;;;;;;7.40;2.40;;;;;;;;;;5113227;28;20517;-60
2024/02/09 13:40:11;;;;;;;13.10;3.10;;;;;;;;;;5118605;28;20047;-59
2024/02/09 13:42:37;;;;;;;5.47;2.10;;;;;;;;;;5114716;28;20024;-59
2024/02/09 13:45:03;;;;;;;8.98;2.67;;;;;;;;;;5101043;28;20096;-60
2024/02/09 13:47:30;;;;;;;12.93;2.97;;;;;;;;;;5105430;28;20032;-59
2024/02/09 13:49:55;;;;;;;5.03;2.10;;;;;;;;;;5110440;28;20024;-58
2024/02/09 13:52:21;;;;;;;4.78;1.88;;;;;;;;;;5105559;28;20031;-60
2024/02/09 13:54:47;;;;;;;6.72;2.83;;;;;;;;;;5102345;28;20052;-59
2024/02/09 13:57:12;;;;;;;8.17;2.20;;;;;;;;;;5105192;28;20028;-59
2024/02/09 13:59:37;;;;;;;9.47;4.20;;;;;;;;;;5107051;28;20442;-60
2024/02/09 14:02:03;;;;;;;6.50;2.20;;;;;;;;;;5124425;28;20048;-62
2024/02/09 14:04:28;;;;;;;9.02;2.20;;;;;;;;;;5109870;28;20028;-58
2024/02/09 14:06:54;;;;;;;4.47;1.97;;;;;;;;;;5096179;28;20033;-59
2024/02/09 14:09:19;;;;;;;10.63;2.30;;;;;;;;;;5096918;28;20334;-59
2024/02/09 14:11:44;;;;;;;11.00;2.70;;;;;;;;;;5114242;28;20051;-59
2024/02/09 14:14:10;;;;;;;8.27;1.83;;;;;;;;;;5111378;28;20032;-59
2024/02/09 14:16:35;;;;;;;11.37;2.87;;;;;;;;;;5113686;28;20024;-60
2024/02/09 14:19:04;;;;;;;7.22;2.67;;;;;;;;;;5099388;28;20043;-61
2024/02/09 14:21:31;;;;;;;8.70;2.97;;;;;;;;;;5114058;28;20063;-58
2024/02/09 14:23:57;;;;;;;7.93;2.80;;;;;;;;;;5114455;28;20032;-60
2024/02/09 14:26:22;;;;;;;11.80;2.58;;;;;;;;;;5113770;28;20062;-59
2024/02/09 14:28:49;;;;;;;8.25;2.25;;;;;;;;;;5105859;28;20028;-61
2024/02/09 14:31:14;;;;;;;9.33;2.67;;;;;;;;;;5106555;28;20032;-58
2024/02/09 14:33:41;;;;;;;10.75;3.85;;;;;;;;;;5109346;28;20024;-60
2024/02/09 14:36:06;;;;;;;8.27;3.10;;;;;;;;;;5100259;28;20032;-60
2024/02/09 14:38:32;;;;;;;13.73;3.10;;;;;;;;;;5110673;28;20143;-58
2024/02/09 14:40:58;;;;;;;9.70;3.43;;;;;;;;;;5100876;28;20043;-59
2024/02/09 14:43:25;;;;;;;6.83;2.73;;;;;;;;;;5110639;28;20028;-59
2024/02/09 14:45:51;;;;;;;12.27;2.87;;;;;;;;;;5108373;28;20036;-59
2024/02/09 14:48:16;;;;;;;10.87;3.10;;;;;;;;;;5108206;28;20031;-60
2024/02/09 14:50:43;;;;;;;10.95;2.92;;;;;;;;;;5109368;28;20035;-59
2024/02/09 14:53:09;;;;;;;10.57;2.53;;;;;;;;;;5107065;28;20039;-59
2024/02/09 14:55:35;;;;;;;11.27;2.60;;;;;;;;;;5116618;28;20024;-60
2024/02/09 14:58:01;;;;;;;11.82;2.75;;;;;;;;;;5109779;28;20085;-60
2024/02/09 15:00:32;;;;;;;13.13;2.63;;;;;;;;;;5121215;28;20032;-60
2024/02/09 15:02:59;;;;;;;10.43;2.63;;;;;;;;;;5107643;28;20060;-61
2024/02/09 15:05:26;;;;;;;9.53;2.97;;;;;;;;;;5112751;28;20024;-61
2024/02/09 15:07:51;;;;;;;8.67;2.87;;;;;;;;;;5114369;28;20054;-59
2024/02/09 15:10:17;;;;;;;10.45;2.65;;;;;;;;;;5115291;28;20083;-59
2024/02/09 15:12:43;;;;;;;7.85;2.20;;;;;;;;;;5105472;28;20024;-61
2024/02/09 15:15:09;;;;;;;8.40;2.05;;;;;;;;;;5119774;28;20099;-59
2024/02/09 15:17:36;;;;;;;5.60;1.80;;;;;;;;;;5114437;28;20024;-59
2024/02/09 15:20:01;;;;;;;9.80;2.20;;;;;;;;;;5101920;28;20044;-59
2024/02/09 15:22:27;;;;;;;7.65;2.50;;;;;;;;;;5110858;28;20028;-61
2024/02/09 15:24:52;;;;;;;12.20;2.83;;;;;;;;;;5118697;28;20039;-59
2024/02/09 15:27:18;;;;;;;7.20;2.53;;;;;;;;;;5116997;28;20050;-60
2024/02/09 15:29:45;;;;;;;11.97;2.67;;;;;;;;;;5117377;28;20034;-60
2024/02/09 15:32:13;;;;;;;11.83;3.20;;;;;;;;;;5130342;28;20039;-59
2024/02/09 15:34:44;;;;;;;6.63;2.50;;;;;;;;;;5117745;28;20020;-58
2024/02/09 15:37:13;;;;;;;10.13;2.90;;;;;;;;;;5102606;28;20028;-59
2024/02/09 15:39:39;;;;;;;7.83;2.20;;;;;;;;;;5097514;28;20051;-60
2024/02/09 15:42:04;;;;;;;10.95;2.65;;;;;;;;;;5125670;28;20027;-59
2024/02/09 15:44:30;;;;;;;10.25;3.55;;;;;;;;;;5119991;28;20036;-59
2024/02/09 15:46:56;;;;;;;11.98;2.92;;;;;;;;;;5115536;28;20096;-60
2024/02/09 15:49:22;;;;;;;6.35;2.17;;;;;;;;;;5110597;28;20041;-58
2024/02/09 15:51:48;;;;;;;6.85;2.25;;;;;;;;;;5108442;28;20043;-61
2024/02/09 15:54:13;;;;;;;12.57;2.77;;;;;;;;;;5113734;28;20028;-57
2024/02/09 15:56:38;;;;;;;9.33;2.00;;;;;;;;;;5108893;28;20032;-58
2024/02/09 15:59:04;;;;;;;6.90;2.00;;;;;;;;;;5115922;28;20058;-57
2024/02/09 16:01:33;;;;;;;9.50;2.03;;;;;;;;;;5111534;28;20031;-60
2024/02/09 16:03:59;;;;;;;7.57;2.10;;;;;;;;;;5111062;28;20267;-58
2024/02/09 16:06:25;;;;;;;;;;;;;;;;;;5111542;28;20039;-59
2024/02/09 16:08:51;;;;;;;4.53;1.83;;;;;;;;;;5108957;28;19908;-59
2024/02/09 16:11:16;;;;;;;13.70;2.23;;;;;;;;;;5111136;28;20280;-58
2024/02/09 16:13:43;;;;;;;8.57;2.00;;;;;;;;;;5117421;28;20020;-60
2024/02/09 16:16:09;;;;;;;6.28;1.73;;;;;;;;;;5114439;28;20047;-59
2024/02/09 16:18:40;;;;;;;7.70;1.93;;;;;;;;;;5115782;28;20039;-56